Miles City, MT

2:13 PM MDT on August 24, 2016 (GMT -0600)
Cowles Creek Subdivison | | Change Station

Elev 2425 ft 46.34 °N, 105.78 °W | Updated 6 seconds ago

Clear
Clear
70.0 °F
Feels Like 70.0 °F
N
8.3
Wind Variable Wind from WNW
Gusts 12.3 mph

Today
High -- | Low -- °F
--% Chance of Precip.
Yesterday
High -- | Low -- °F
Precip. -- in
Pressure 30.13 in
Visibility 10.0 miles
Clouds Clear
Dew Point 47 °F
Humidity 43%
Rainfall 0.00 in
Snow Depth Not available.
6:14 AM 7:56 PM
Waning Gibbous, 54% visible
METAR KMLS 241953Z AUTO 31020G30KT 10SM CLR 22/05 A3016 RMK AO2 PK WND 30030/1953 SLP203 T02170050
Pressure 30.13 in
Visibility 10.0 miles
Clouds Clear
Dew Point 47 °F
Humidity 43%
Rainfall 0.00 in
Snow Depth Not available.
6:14 AM 7:56 PM
Waning Gibbous, 54% visible
METAR KMLS 241953Z AUTO 31020G30KT 10SM CLR 22/05 A3016 RMK AO2 PK WND 30030/1953 SLP203 T02170050

10-Day Weather Forecast

Almanac

Astronomy

Aug. 24, 2016 Rise Set
Actual Time
Civil Twilight
Nautical Twilight
Astronomical Twilight
Moon
Length of Visible Light
Length of Day
Tomorrow will be .
, % of the Moon is Illuminated

Today's Extremes

State Highs State Lows

Community

WunderPhotos

Upload Photos

1,934,699 photos uploaded!

WunderBlog® & News

Nearby

Air Quality

  Air Quality AQ Index Pollutant
Not available.

Snow Depth

Station Depth Elevation

Earthquake Activity

City Distance Mag. Time & Date
Minimum magnitude displayed is 2.5.

Coastal Water Temperatures

Place Temperature

Stations

Nearby Weather Stations

Station Location Temp. Windchill Dew Point Humidity Wind Precip. Elev Updated Type
                   

Watches & Warnings

There are currently no watches in effect.